createdAt,value
2022-08-04T00:02:18.915Z,74.60
2022-08-04T00:05:01.302Z,75.40
2022-08-04T00:07:44.991Z,75.30
2022-08-04T00:10:17.386Z,74.90
2022-08-04T00:12:48.659Z,75.20
2022-08-04T00:15:17.176Z,75.60
2022-08-04T00:18:19.592Z,74.90
2022-08-04T00:20:46.799Z,75.20
2022-08-04T00:23:15.035Z,74.90
2022-08-04T00:25:42.267Z,75.00
2022-08-04T00:28:10.226Z,74.90
2022-08-04T00:30:37.779Z,75.00
2022-08-04T00:33:04.918Z,74.90
2022-08-04T00:35:33.657Z,75.00
2022-08-04T00:38:03.483Z,74.90
2022-08-04T00:40:36.888Z,75.20
2022-08-04T00:43:10.398Z,75.40
2022-08-04T00:46:15.743Z,75.10
2022-08-04T00:48:33.586Z,75.10
2022-08-04T00:51:16.238Z,75.20
2022-08-04T00:54:05.761Z,75.70
2022-08-04T00:57:29.887Z,75.60
2022-08-04T01:00:14.655Z,75.70
2022-08-04T01:03:02.946Z,75.40
2022-08-04T01:05:37.939Z,75.70
2022-08-04T01:08:41.101Z,75.50
2022-08-04T01:11:56.255Z,75.20
2022-08-04T01:14:48.625Z,75.80
2022-08-04T01:17:28.710Z,75.80
2022-08-04T01:20:10.048Z,75.90
2022-08-04T01:23:08.788Z,75.60
2022-08-04T01:26:42.680Z,75.60
2022-08-04T01:29:09.750Z,75.80
2022-08-04T01:32:00.723Z,75.80
2022-08-04T01:34:31.528Z,76.00
2022-08-04T01:37:15.851Z,75.70
2022-08-04T01:39:52.296Z,75.70
2022-08-04T01:42:31.921Z,76.10
2022-08-04T01:45:06.260Z,76.20
2022-08-04T01:47:36.448Z,76.20
2022-08-04T01:50:10.081Z,76.40
2022-08-04T01:52:40.094Z,76.50
2022-08-04T01:55:10.359Z,76.30
2022-08-04T01:57:47.243Z,76.20
2022-08-04T02:00:22.989Z,76.30
2022-08-04T02:02:51.678Z,76.40
2022-08-04T02:05:21.542Z,76.40
2022-08-04T02:08:03.385Z,76.60
2022-08-04T02:10:50.443Z,76.60
2022-08-04T02:13:32.136Z,76.40
2022-08-04T02:16:13.857Z,76.70
2022-08-04T02:19:14.818Z,76.70
2022-08-04T02:21:44.763Z,76.50
2022-08-04T02:24:18.843Z,76.80
2022-08-04T02:26:53.614Z,76.70
2022-08-04T02:29:36.004Z,76.60
2022-08-04T02:32:14.253Z,76.90
2022-08-04T02:35:05.658Z,76.80
2022-08-04T02:37:33.505Z,76.80
2022-08-04T02:40:03.966Z,76.70
2022-08-04T02:42:32.025Z,76.70
2022-08-04T02:45:00.856Z,76.80
2022-08-04T02:48:29.656Z,76.90
2022-08-04T02:50:29.068Z,77.10
2022-08-04T02:53:00.461Z,77.10
2022-08-04T02:55:29.985Z,77.10
2022-08-04T02:57:58.951Z,77.20
2022-08-04T03:00:26.664Z,77.10
2022-08-04T03:02:59.598Z,77.20
2022-08-04T03:05:54.142Z,77.20
2022-08-04T03:08:39.184Z,77.30
2022-08-04T03:11:16.968Z,77.00
2022-08-04T03:14:27.867Z,77.30
2022-08-04T03:17:25.916Z,76.90
2022-08-04T03:19:53.004Z,77.10
2022-08-04T03:23:11.717Z,77.10
2022-08-04T03:26:08.483Z,77.20
2022-08-04T03:29:14.092Z,77.30
2022-08-04T03:32:38.151Z,77.20
2022-08-04T03:35:34.549Z,77.00
2022-08-04T03:38:19.966Z,77.20
2022-08-04T03:40:59.287Z,77.10
2022-08-04T03:43:58.279Z,77.10
2022-08-04T03:46:44.211Z,77.20
2022-08-04T03:49:40.380Z,77.20
2022-08-04T03:53:10.468Z,77.20
2022-08-04T03:56:28.119Z,76.90
2022-08-04T03:59:06.820Z,77.10
2022-08-04T04:02:02.525Z,77.50
2022-08-04T04:04:41.469Z,77.50
2022-08-04T04:07:36.383Z,77.70
2022-08-04T04:10:21.466Z,77.60
2022-08-04T04:13:12.553Z,77.80
2022-08-04T04:16:07.447Z,77.60
2022-08-04T04:19:00.735Z,77.80
2022-08-04T04:21:48.562Z,77.80
2022-08-04T04:24:43.021Z,77.60
2022-08-04T04:27:29.571Z,77.80
2022-08-04T04:30:01.694Z,78.20
2022-08-04T04:32:38.065Z,78.00
2022-08-04T04:35:19.645Z,77.90
2022-08-04T04:37:48.085Z,77.80
2022-08-04T04:40:41.462Z,77.80
2022-08-04T04:43:18.042Z,77.60
2022-08-04T04:46:06.100Z,77.70
2022-08-04T04:48:43.070Z,77.70
2022-08-04T04:51:37.692Z,77.70
2022-08-04T04:54:22.159Z,77.80
2022-08-04T04:57:01.733Z,77.70
2022-08-04T04:59:37.061Z,77.80
2022-08-04T05:02:21.978Z,77.70
2022-08-04T05:05:03.523Z,77.50
2022-08-04T05:07:52.980Z,77.50
2022-08-04T05:10:51.256Z,77.70
2022-08-04T05:14:36.038Z,77.50
2022-08-04T05:16:44.919Z,77.60
2022-08-04T05:19:11.953Z,77.70
2022-08-04T05:21:48.217Z,77.70
2022-08-04T05:24:22.440Z,77.80
2022-08-04T05:26:56.313Z,77.70
2022-08-04T05:29:38.049Z,77.80
2022-08-04T05:32:13.439Z,77.50
2022-08-04T05:34:45.266Z,77.80
2022-08-04T05:37:17.813Z,77.80
2022-08-04T05:39:49.959Z,77.70
2022-08-04T05:42:17.108Z,77.80
2022-08-04T05:44:50.467Z,77.70
2022-08-04T05:47:21.558Z,77.60
2022-08-04T05:49:55.536Z,77.50
2022-08-04T05:52:29.889Z,77.50
2022-08-04T05:54:58.586Z,77.30
2022-08-04T05:57:26.266Z,77.70
2022-08-04T05:59:57.575Z,77.60
2022-08-04T06:02:25.653Z,77.60
2022-08-04T06:04:53.495Z,77.70
2022-08-04T06:07:20.805Z,77.50
2022-08-04T06:09:48.157Z,77.80
2022-08-04T06:12:32.700Z,77.70
2022-08-04T06:15:01.389Z,77.80
2022-08-04T06:18:37.000Z,78.00
2022-08-04T06:20:34.517Z,77.80
2022-08-04T06:23:07.506Z,78.00
2022-08-04T06:25:46.500Z,78.20
2022-08-04T06:28:15.460Z,78.30
2022-08-04T06:30:47.724Z,77.20
2022-08-04T06:33:27.776Z,72.40
2022-08-04T06:35:56.617Z,70.90
2022-08-04T06:38:25.986Z,70.20
2022-08-04T06:40:54.933Z,69.80
2022-08-04T06:43:23.175Z,69.40
2022-08-04T06:45:52.217Z,68.70
2022-08-04T06:48:21.689Z,68.20
2022-08-04T06:51:27.332Z,67.60
2022-08-04T06:53:48.245Z,67.50
2022-08-04T06:56:17.534Z,67.30
2022-08-04T06:58:46.757Z,66.60
2022-08-04T07:01:17.048Z,66.40
2022-08-04T07:03:44.615Z,66.50
2022-08-04T07:06:19.067Z,66.40
2022-08-04T07:08:49.613Z,66.30
2022-08-04T07:11:17.276Z,66.30
2022-08-04T07:13:46.598Z,65.90
2022-08-04T07:16:18.434Z,66.80
2022-08-04T07:18:45.823Z,66.10
2022-08-04T07:21:21.014Z,66.00
2022-08-04T07:23:48.810Z,65.40
2022-08-04T07:26:17.345Z,65.70
2022-08-04T07:28:44.743Z,65.80
2022-08-04T07:31:35.274Z,65.30
2022-08-04T07:34:16.804Z,64.70
2022-08-04T07:36:50.898Z,64.50
2022-08-04T07:39:28.645Z,64.60
2022-08-04T07:41:58.155Z,64.50
2022-08-04T07:44:25.876Z,65.20
2022-08-04T07:46:54.023Z,64.50
2022-08-04T07:49:55.081Z,64.50
2022-08-04T07:52:09.870Z,64.20
2022-08-04T07:54:39.157Z,63.90
2022-08-04T07:57:06.335Z,63.60
2022-08-04T07:59:35.113Z,63.20
2022-08-04T08:02:03.097Z,62.90
2022-08-04T08:04:30.820Z,62.90
2022-08-04T08:06:58.882Z,62.50
2022-08-04T08:09:26.188Z,62.40
2022-08-04T08:12:35.647Z,62.20
2022-08-04T08:14:42.788Z,61.80
2022-08-04T08:17:09.937Z,62.20
2022-08-04T08:19:38.468Z,61.90
2022-08-04T08:22:06.006Z,61.40
2022-08-04T08:24:36.417Z,61.40
2022-08-04T08:27:04.754Z,61.00
2022-08-04T08:29:35.016Z,61.20
2022-08-04T08:32:08.321Z,61.30
2022-08-04T08:34:37.814Z,61.10
2022-08-04T08:37:29.305Z,60.90
2022-08-04T08:40:02.360Z,60.70
2022-08-04T08:42:54.940Z,60.80
2022-08-04T08:45:53.015Z,60.00
2022-08-04T08:50:00.361Z,59.60
2022-08-04T08:52:05.829Z,59.10
2022-08-04T08:54:38.354Z,59.50
2022-08-04T08:57:24.162Z,59.20
2022-08-04T09:00:14.194Z,59.40
2022-08-04T09:02:47.373Z,59.10
2022-08-04T09:05:14.331Z,59.10
2022-08-04T09:08:15.109Z,59.00
2022-08-04T09:10:50.880Z,58.40
2022-08-04T09:13:21.539Z,59.40
2022-08-04T09:15:57.551Z,58.90
2022-08-04T09:18:43.377Z,58.90
2022-08-04T09:21:38.428Z,58.50
2022-08-04T09:24:36.227Z,58.90
2022-08-04T09:27:10.057Z,59.00
2022-08-04T09:29:41.843Z,58.80
2022-08-04T09:32:30.421Z,58.50
2022-08-04T09:35:13.518Z,58.40
2022-08-04T09:38:05.251Z,58.30
2022-08-04T09:40:57.230Z,58.10
2022-08-04T09:43:59.173Z,58.10
2022-08-04T09:46:37.165Z,57.80
2022-08-04T09:49:28.208Z,57.60
2022-08-04T09:52:09.954Z,57.30
2022-08-04T09:54:46.061Z,57.50
2022-08-04T09:57:36.299Z,58.10
2022-08-04T10:00:13.802Z,57.60
2022-08-04T10:02:52.253Z,56.80
2022-08-04T10:05:26.417Z,56.70
2022-08-04T10:08:16.665Z,56.60
2022-08-04T10:11:11.370Z,56.00
2022-08-04T10:14:02.907Z,56.20
2022-08-04T10:16:40.607Z,56.00
2022-08-04T10:19:30.039Z,56.40
2022-08-04T10:22:28.877Z,55.70
2022-08-04T10:26:02.669Z,55.30
2022-08-04T10:28:06.842Z,55.90
2022-08-04T10:30:37.284Z,56.10
2022-08-04T10:33:10.888Z,56.70
2022-08-04T10:36:03.099Z,55.70
2022-08-04T10:38:56.712Z,55.80
2022-08-04T10:41:59.783Z,55.50
2022-08-04T10:44:45.529Z,55.30
2022-08-04T10:47:22.487Z,56.00
2022-08-04T10:50:01.897Z,55.60
2022-08-04T10:52:48.101Z,54.70
2022-08-04T10:55:20.653Z,54.20
2022-08-04T10:58:01.619Z,54.30
2022-08-04T11:00:31.757Z,55.40
2022-08-04T11:03:01.957Z,56.00
2022-08-04T11:05:28.981Z,56.00
2022-08-04T11:08:08.732Z,55.40
2022-08-04T11:10:46.817Z,55.00
2022-08-04T11:13:22.158Z,54.10
2022-08-04T11:16:02.569Z,54.10
2022-08-04T11:18:44.428Z,54.30
2022-08-04T11:21:26.325Z,54.50
2022-08-04T11:24:03.406Z,54.50
2022-08-04T11:26:45.731Z,54.50
2022-08-04T11:29:25.424Z,53.70
2022-08-04T11:31:53.628Z,53.70
2022-08-04T11:34:23.747Z,54.50
2022-08-04T11:37:14.110Z,54.00
2022-08-04T11:39:52.045Z,53.30
2022-08-04T11:42:30.811Z,53.30
2022-08-04T11:45:04.834Z,53.10
2022-08-04T11:47:54.310Z,53.60
2022-08-04T11:50:53.643Z,59.10
2022-08-04T11:53:26.646Z,60.80
2022-08-04T11:56:09.404Z,59.10
2022-08-04T11:58:38.149Z,60.00
2022-08-04T12:01:44.233Z,60.50
2022-08-04T12:04:26.920Z,62.20
2022-08-04T12:07:30.055Z,62.10
2022-08-04T12:10:41.062Z,61.60
2022-08-04T12:13:28.174Z,61.20
2022-08-04T12:15:58.193Z,59.80
2022-08-04T12:18:34.804Z,58.90
2022-08-04T12:21:09.213Z,58.60
2022-08-04T12:23:41.800Z,58.60
2022-08-04T12:26:17.403Z,58.40
2022-08-04T12:31:48.249Z,58.40
2022-08-04T12:34:34.159Z,58.40
2022-08-04T12:37:30.698Z,58.40
2022-08-04T12:40:28.173Z,58.80
2022-08-04T12:43:15.052Z,59.10
2022-08-04T12:45:49.810Z,59.70
2022-08-04T12:48:21.251Z,58.90
2022-08-04T12:50:59.350Z,58.20
2022-08-04T12:53:50.647Z,57.10
2022-08-04T12:56:26.550Z,56.00
2022-08-04T12:59:01.181Z,55.60
2022-08-04T13:02:09.337Z,55.40
2022-08-04T13:04:28.979Z,54.70
2022-08-04T13:07:23.173Z,53.70
2022-08-04T13:09:53.324Z,52.80
2022-08-04T13:12:32.528Z,55.00
2022-08-04T13:15:10.882Z,54.40
2022-08-04T13:18:11.909Z,54.80
2022-08-04T13:20:45.197Z,55.20
2022-08-04T13:23:21.549Z,55.60
2022-08-04T13:26:42.976Z,55.70
2022-08-04T13:28:43.117Z,55.50
2022-08-04T13:31:19.913Z,55.30
2022-08-04T13:33:53.162Z,55.00
2022-08-04T13:36:25.590Z,54.90
2022-08-04T13:38:57.509Z,54.80
2022-08-04T13:41:30.943Z,54.60
2022-08-04T13:44:18.252Z,54.50
2022-08-04T13:47:05.082Z,54.10
2022-08-04T13:49:42.473Z,53.10
2022-08-04T13:52:26.388Z,53.70
2022-08-04T13:54:53.847Z,52.90
2022-08-04T13:57:33.232Z,53.20
2022-08-04T14:00:09.349Z,52.50
2022-08-04T14:03:23.086Z,52.70
2022-08-04T14:06:15.404Z,52.50
2022-08-04T14:08:56.293Z,52.80
2022-08-04T14:12:09.923Z,53.20
2022-08-04T14:14:32.816Z,53.30
2022-08-04T14:17:20.358Z,53.80
2022-08-04T14:19:56.069Z,53.90
2022-08-04T14:22:26.333Z,54.20
2022-08-04T14:25:09.278Z,54.50
2022-08-04T14:27:45.733Z,54.80
2022-08-04T14:30:23.098Z,55.10
2022-08-04T14:34:00.526Z,55.50
2022-08-04T14:36:04.182Z,55.60
2022-08-04T14:38:45.137Z,55.70
2022-08-04T14:41:13.044Z,55.90
2022-08-04T14:43:57.529Z,55.90
2022-08-04T14:46:36.085Z,56.10
2022-08-04T14:49:04.144Z,56.10
2022-08-04T14:51:45.599Z,56.20
2022-08-04T14:54:18.531Z,56.40
2022-08-04T14:56:55.717Z,56.50
2022-08-04T14:59:24.600Z,56.80
2022-08-04T15:02:00.872Z,56.80
2022-08-04T15:04:29.999Z,56.90
2022-08-04T15:06:57.543Z,57.70
2022-08-04T15:09:25.173Z,57.90
2022-08-04T15:11:52.423Z,57.40
2022-08-04T15:14:36.948Z,57.50
2022-08-04T15:17:12.030Z,57.70
2022-08-04T15:19:56.876Z,57.90
2022-08-04T15:22:24.187Z,58.10
2022-08-04T15:24:54.864Z,58.20
2022-08-04T15:27:30.026Z,58.30
2022-08-04T15:30:04.278Z,58.60
2022-08-04T15:32:38.239Z,58.80
2022-08-04T15:35:08.626Z,58.90
2022-08-04T15:38:07.846Z,58.90
2022-08-04T15:40:59.894Z,59.20
2022-08-04T15:43:45.622Z,59.10
2022-08-04T15:46:42.843Z,59.10
2022-08-04T15:49:22.811Z,59.20
2022-08-04T15:52:04.194Z,59.50
2022-08-04T15:54:39.830Z,59.60
2022-08-04T15:57:10.335Z,59.50
2022-08-04T15:59:58.432Z,59.70
2022-08-04T16:02:37.521Z,60.10
2022-08-04T16:05:18.636Z,60.00
2022-08-04T16:08:08.507Z,60.00
2022-08-04T16:10:36.668Z,60.10
2022-08-04T16:13:20.371Z,60.00
2022-08-04T16:15:55.512Z,60.40
2022-08-04T16:18:28.854Z,60.30
2022-08-04T16:21:02.494Z,60.40
2022-08-04T16:24:15.297Z,60.40
2022-08-04T16:26:56.848Z,60.80
2022-08-04T16:29:28.075Z,60.50
2022-08-04T16:32:11.865Z,60.60
2022-08-04T16:34:49.956Z,60.80
2022-08-04T16:37:21.694Z,61.10
2022-08-04T16:39:50.820Z,61.00
2022-08-04T16:42:32.325Z,61.10
2022-08-04T16:45:19.774Z,61.30
2022-08-04T16:47:49.610Z,61.70
2022-08-04T16:50:18.407Z,61.40
2022-08-04T16:52:51.036Z,61.50
2022-08-04T16:55:27.069Z,61.60
2022-08-04T16:57:58.943Z,61.80
2022-08-04T17:00:31.484Z,61.80
2022-08-04T17:03:01.510Z,62.20
2022-08-04T17:05:39.045Z,62.30
2022-08-04T17:10:56.378Z,62.60
2022-08-04T17:14:04.635Z,62.80
2022-08-04T17:16:21.627Z,63.30
2022-08-04T17:18:51.646Z,63.20
2022-08-04T17:21:28.175Z,63.60
2022-08-04T17:24:14.884Z,64.30
2022-08-04T17:26:53.602Z,64.50
2022-08-04T17:29:42.812Z,65.00
2022-08-04T17:32:15.311Z,64.40
2022-08-04T17:34:46.175Z,64.90
2022-08-04T17:40:11.463Z,65.10
2022-08-04T17:42:40.275Z,65.90
2022-08-04T17:48:09.608Z,65.80
2022-08-04T17:50:36.969Z,66.30
2022-08-04T17:53:12.974Z,66.30
2022-08-04T17:55:43.295Z,66.50
2022-08-04T17:58:20.966Z,66.70
2022-08-04T18:01:23.193Z,67.20
2022-08-04T18:03:52.907Z,67.00
2022-08-04T18:06:23.048Z,66.50
2022-08-04T18:08:58.134Z,66.60
2022-08-04T18:11:29.636Z,67.00
2022-08-04T18:14:10.540Z,66.40
2022-08-04T18:16:44.796Z,66.30
2022-08-04T18:19:15.326Z,66.90
2022-08-04T18:21:45.976Z,66.30
2022-08-04T18:24:35.359Z,66.30
2022-08-04T18:27:21.869Z,66.40
2022-08-04T18:30:14.467Z,66.40
2022-08-04T18:32:36.984Z,66.40
2022-08-04T18:35:18.722Z,66.40
2022-08-04T18:38:06.434Z,66.40
2022-08-04T18:40:53.209Z,66.40
2022-08-04T18:43:28.048Z,66.50
2022-08-04T18:45:59.524Z,66.70
2022-08-04T18:48:36.961Z,66.60
2022-08-04T18:51:22.789Z,66.70
2022-08-04T18:53:55.203Z,66.80
2022-08-04T18:56:32.431Z,66.60
2022-08-04T18:59:04.754Z,66.60
2022-08-04T19:02:13.610Z,66.90
2022-08-04T19:04:33.407Z,66.70
2022-08-04T19:08:02.584Z,66.70
2022-08-04T19:09:57.343Z,66.70
2022-08-04T19:12:26.882Z,67.30
2022-08-04T19:14:58.853Z,66.70
2022-08-04T19:17:53.905Z,66.60
2022-08-04T19:20:25.688Z,66.50
2022-08-04T19:24:27.957Z,66.40
2022-08-04T19:26:02.263Z,66.60
2022-08-04T19:28:34.060Z,66.60
2022-08-04T19:31:07.410Z,66.40
2022-08-04T19:33:59.507Z,66.60
2022-08-04T19:36:27.978Z,66.50
2022-08-04T19:38:59.124Z,66.50
2022-08-04T19:41:27.297Z,66.50
2022-08-04T19:43:54.811Z,66.40
2022-08-04T19:50:02.896Z,66.60
2022-08-04T19:51:56.874Z,66.40
2022-08-04T19:54:27.348Z,66.50
2022-08-04T19:56:54.707Z,66.50
2022-08-04T19:59:22.786Z,66.40
2022-08-04T20:01:50.283Z,66.20
2022-08-04T20:04:17.535Z,66.30
2022-08-04T20:06:44.675Z,66.50
2022-08-04T20:09:26.534Z,66.50
2022-08-04T20:11:58.140Z,66.40
2022-08-04T20:14:32.525Z,66.30
2022-08-04T20:17:10.067Z,66.20
2022-08-04T20:19:38.849Z,66.30
2022-08-04T20:22:08.646Z,66.30
2022-08-04T20:25:01.089Z,66.20
2022-08-04T20:27:59.333Z,66.20
2022-08-04T20:30:28.499Z,66.20
2022-08-04T20:32:56.639Z,66.30
2022-08-04T20:35:27.054Z,66.30
2022-08-04T20:38:00.322Z,66.20
2022-08-04T20:40:29.190Z,66.50
2022-08-04T20:43:00.350Z,66.50
2022-08-04T20:45:57.093Z,66.60
2022-08-04T20:48:15.213Z,66.60
2022-08-04T20:50:46.095Z,66.50
2022-08-04T20:53:16.576Z,66.60
2022-08-04T20:55:54.708Z,66.60
2022-08-04T20:58:27.399Z,66.80
2022-08-04T21:00:55.659Z,66.60
2022-08-04T21:03:49.840Z,66.80
2022-08-04T21:06:10.297Z,66.90
2022-08-04T21:08:37.587Z,66.90
2022-08-04T21:11:06.946Z,67.10
2022-08-04T21:13:50.667Z,67.20
2022-08-04T21:16:53.768Z,67.20
2022-08-04T21:19:13.082Z,67.10
2022-08-04T21:21:42.382Z,67.10
2022-08-04T21:24:10.187Z,67.30
2022-08-04T21:26:42.837Z,67.10
2022-08-04T21:29:14.523Z,67.20
2022-08-04T21:31:51.053Z,67.10
2022-08-04T21:34:39.091Z,67.00
2022-08-04T21:37:09.354Z,67.00
2022-08-04T21:39:50.318Z,67.00
2022-08-04T21:42:39.045Z,66.40
2022-08-04T21:45:10.125Z,67.20
2022-08-04T21:47:46.784Z,67.10
2022-08-04T21:50:19.969Z,67.20
2022-08-04T21:52:49.188Z,67.10
2022-08-04T21:55:17.203Z,67.30
2022-08-04T21:57:46.255Z,67.20
2022-08-04T22:03:03.853Z,67.30
2022-08-04T22:05:32.774Z,67.30
2022-08-04T22:08:00.030Z,67.20
2022-08-04T22:18:41.059Z,67.40
2022-08-04T22:21:09.614Z,67.40
2022-08-04T22:23:45.173Z,67.50
2022-08-04T22:26:14.490Z,67.30
2022-08-04T22:28:49.328Z,67.40
2022-08-04T22:31:24.005Z,67.60
2022-08-04T22:33:54.648Z,67.60
2022-08-04T22:36:24.789Z,67.70
2022-08-04T22:39:04.472Z,67.40
2022-08-04T22:41:48.699Z,61.60
2022-08-04T22:44:21.922Z,57.60
2022-08-04T22:46:50.976Z,56.20
2022-08-04T22:49:18.044Z,55.30
2022-08-04T22:51:52.165Z,54.00
2022-08-04T22:54:19.225Z,53.70
2022-08-04T22:56:46.488Z,53.00
2022-08-04T22:59:14.115Z,56.50
2022-08-04T23:01:59.102Z,57.50
2022-08-04T23:04:31.490Z,57.70
2022-08-04T23:07:00.655Z,57.50
2022-08-04T23:09:50.061Z,57.40
2022-08-04T23:12:27.310Z,57.80
2022-08-04T23:14:56.583Z,58.00
2022-08-04T23:17:25.231Z,58.20
2022-08-04T23:19:58.678Z,58.40
2022-08-04T23:22:37.439Z,58.70
2022-08-04T23:25:16.358Z,59.10
2022-08-04T23:27:51.650Z,59.30
2022-08-04T23:30:24.384Z,59.40
2022-08-04T23:32:56.463Z,59.60
2022-08-04T23:35:24.018Z,59.70
2022-08-04T23:37:56.805Z,60.20
2022-08-04T23:40:32.371Z,60.60
2022-08-04T23:43:01.934Z,60.70
2022-08-04T23:46:08.318Z,60.80
2022-08-04T23:48:20.842Z,61.30
2022-08-04T23:50:48.681Z,61.30
2022-08-04T23:53:18.312Z,61.70
2022-08-04T23:55:45.913Z,61.70
2022-08-04T23:58:18.651Z,61.80
